Date,TemperatureHighF,TemperatureAvgF,TemperatureLowF,DewpointHighF,DewpointAvgF,DewpointLowF,HumidityHigh,HumidityAvg,HumidityLow,PressureMaxIn,PressureMinIn,WindSpeedMaxMPH,WindSpeedAvgMPH,GustSpeedMaxMPH,PrecipitationSumIn
2013-1-1,23,7,-9,8,2,-14,89,80,52,0.00,40.00,0,-999,0,0.00
2013-1-2,28,13,-4,9,-1,-12,88,60,18,0.00,40.00,0,-999,0,0.00
2013-1-3,29,13,-4,8,1,-8,86,64,22,0.00,40.00,0,-999,0,0.00
2013-1-4,33,19,4,10,1,-4,85,52,19,0.00,40.00,0,-999,0,0.00
2013-1-5,38,21,2,14,8,-1,91,61,29,0.00,40.00,0,-999,0,0.00
2013-1-6,38,26,10,20,5,-7,83,46,15,0.00,40.00,0,-999,0,0.00
2013-1-7,36,24,5,21,9,-3,91,57,19,0.00,40.00,0,-999,0,0.00
2013-1-8,30,25,19,23,21,16,96,84,69,0.00,40.00,0,-999,0,0.00
2013-1-9,46,35,11,16,7,-3,93,38,12,0.00,40.00,0,-999,0,0.00
2013-1-10,39,27,11,23,13,7,92,61,26,0.00,40.00,0,-999,0,0.00
2013-1-11,10,6,3,8,2,-2,90,81,70,0.00,40.00,0,-999,0,0.00
2013-1-12,10,-1,-11,0,-6,-16,85,78,62,0.00,40.00,0,-999,0,0.00
2013-1-13,7,-7,-20,-6,-14,-25,80,71,49,0.00,40.00,0,-999,0,0.00
2013-1-14,5,-7,-21,-7,-13,-26,81,72,55,0.00,40.00,0,-999,0,0.00
2013-1-17,41,23,11,21,12,8,90,68,33,0.00,40.00,0,-999,0,0.00
2013-1-18,42,24,7,17,6,-1,89,56,19,0.00,40.00,0,-999,0,0.00
2013-1-19,42,25,7,13,6,1,90,53,18,0.00,40.00,0,-999,0,0.00
2013-1-20,41,22,5,13,4,0,85,52,17,0.00,40.00,0,-999,0,0.00
2013-1-21,45,26,10,11,7,3,83,50,17,0.00,40.00,0,-999,0,0.00
2013-1-22,45,28,8,13,5,-4,75,42,12,0.00,40.00,0,-999,0,0.00
2013-1-23,47,36,16,17,8,-10,78,36,9,0.00,40.00,0,-999,0,0.00
2013-1-24,40,34,30,31,27,13,95,79,35,0.00,40.00,0,-999,0,0.00
2013-1-25,36,30,23,28,26,21,95,86,71,0.00,40.00,0,-999,0,0.00
2013-1-26,39,30,22,30,26,21,95,85,62,0.00,40.00,0,-999,0,0.00
2013-1-27,32,25,16,29,22,14,95,88,66,0.00,40.00,0,-999,0,0.00
2013-1-28,18,11,7,14,6,1,92,80,54,0.00,40.00,0,-999,0,0.00
2013-1-29,17,12,7,12,8,4,89,84,76,0.00,40.00,0,-999,0,0.00
2013-1-30,26,22,14,22,19,11,94,88,79,0.00,40.00,0,-999,0,0.00
2013-1-31,31,26,22,20,19,17,89,75,60,0.00,40.00,0,-999,0,0.00